Time;durP1;ratioP1;P1;durP2;ratioP2;P2;SDS_P1;SDS_P2;PMS_P1;PMS_P2;Temp;Humidity;BMP_temperature;BMP_pressure;BME280_temperature;BME280_humidity;BME280_pressure;Samples;Min_cycle;Max_cycle;Signal;HPM_P1;HPM_P2
2021/03/19 00:00:35;;;;;;;23.07;19.23;;;;;;;0.11;68.95;100465.84;122606;1112;104610;-81
2021/03/19 00:03:02;;;;;;;31.17;21.17;;;;;;;0.14;68.93;100467.63;122374;1109;105371;-81
2021/03/19 00:05:31;;;;;;;26.17;21.43;;;;;;;0.17;68.49;100467.67;122526;1112;104402;-81
2021/03/19 00:08:12;;;;;;;24.27;19.43;;;;;;;0.19;68.92;100471.22;122752;1112;104649;-81
2021/03/19 00:10:38;;;;;;;26.10;20.23;;;;;;;0.23;68.73;100467.80;123195;1109;104498;-79
2021/03/19 00:16:32;;;;;;;29.07;21.25;;;;;;;0.15;68.23;100453.69;123106;1108;104649;-82
2021/03/19 00:18:59;;;;;;;27.25;20.55;;;;;;;0.06;68.46;100458.77;123401;1105;104295;-82
2021/03/19 00:21:26;;;;;;;33.97;25.17;;;;;;;0.05;68.09;100457.00;123464;1105;104289;-80
2021/03/19 00:23:54;;;;;;;29.73;21.87;;;;;;;0.00;68.28;100459.55;123280;1106;104254;-81
2021/03/19 00:26:21;;;;;;;28.03;25.07;;;;;;;0.01;68.66;100460.42;123233;1106;104261;-80
2021/03/19 00:28:47;;;;;;;33.50;21.77;;;;;;;-0.09;68.86;100452.41;123181;1105;104395;-82
2021/03/19 00:31:14;;;;;;;38.00;26.97;;;;;;;-0.15;68.68;100452.28;123092;1105;104425;-81
2021/03/19 00:33:41;;;;;;;32.70;26.15;;;;;;;-0.22;68.63;100459.14;123466;1105;104421;-81
2021/03/19 00:36:08;;;;;;;30.80;23.55;;;;;;;-0.31;68.94;100448.50;123422;1105;104400;-81
2021/03/19 00:38:34;;;;;;;29.17;21.40;;;;;;;-0.44;69.29;100450.02;123358;1105;104265;-81
2021/03/19 00:41:01;;;;;;;31.60;22.93;;;;;;;-0.49;69.68;100448.14;123506;1105;104257;-83
2021/03/19 00:43:27;;;;;;;30.33;23.27;;;;;;;-0.44;69.64;100444.80;123176;1106;104290;-80
2021/03/19 00:45:54;;;;;;;27.43;23.90;;;;;;;-0.36;69.07;100450.14;123359;1105;104376;-80
2021/03/19 00:48:20;;;;;;;30.33;24.03;;;;;;;-0.25;68.80;100438.16;123439;1105;104348;-84
2021/03/19 00:50:52;;;;;;;29.87;20.33;;;;;;;-0.21;68.46;100446.95;123363;1104;104594;-83
2021/03/19 00:53:20;;;;;;;30.60;22.67;;;;;;;-0.15;68.17;100451.41;123346;1105;104370;-81
2021/03/19 00:55:47;;;;;;;28.57;22.07;;;;;;;-0.23;68.20;100446.03;123384;1105;104258;-80
2021/03/19 00:58:14;;;;;;;28.90;19.35;;;;;;;-0.31;68.75;100442.40;123274;1105;104345;-80
2021/03/19 01:00:40;;;;;;;25.17;19.77;;;;;;;-0.40;68.72;100443.09;123417;1105;104626;-82
2021/03/19 01:03:07;;;;;;;26.90;19.65;;;;;;;-0.37;69.05;100441.42;123364;1105;105333;-81
2021/03/19 01:05:40;;;;;;;38.43;19.63;;;;;;;-0.31;69.08;100438.03;123439;1105;104207;-80
2021/03/19 01:08:21;;;;;;;27.50;18.00;;;;;;;-0.29;68.73;100444.19;123322;1105;104188;-83
2021/03/19 01:11:07;;;;;;;25.23;21.10;;;;;;;-0.27;68.90;100441.59;123444;1105;104345;-82
2021/03/19 01:13:49;;;;;;;27.77;21.00;;;;;;;-0.32;68.63;100443.24;123430;1106;105275;-81
2021/03/19 01:16:15;;;;;;;26.23;21.47;;;;;;;-0.31;68.60;100440.65;123257;1106;104460;-81
2021/03/19 01:18:43;;;;;;;27.13;20.40;;;;;;;-0.32;69.21;100438.01;123486;1105;104341;-81
2021/03/19 01:21:18;;;;;;;32.70;20.35;;;;;;;-0.28;68.90;100447.67;123464;1105;104268;-81
2021/03/19 01:23:46;;;;;;;24.50;19.82;;;;;;;-0.27;68.20;100438.98;123433;1105;104229;-81
2021/03/19 01:26:13;;;;;;;28.32;21.15;;;;;;;-0.27;68.42;100434.61;123585;1105;104326;-81
2021/03/19 01:28:40;;;;;;;26.67;20.53;;;;;;;-0.29;68.54;100438.95;123539;1105;104383;-82
2021/03/19 01:31:20;;;;;;;22.70;19.17;;;;;;;-0.36;69.25;100424.88;123464;1105;104251;-82
2021/03/19 01:33:48;;;;;;;26.07;19.23;;;;;;;-0.28;68.85;100439.83;123306;1105;104227;-84
2021/03/19 01:36:14;;;;;;;23.20;20.55;;;;;;;-0.29;68.74;100438.95;123435;1105;104274;-80
2021/03/19 01:38:41;;;;;;;25.65;20.40;;;;;;;-0.31;68.66;100440.65;123337;1105;104245;-82
2021/03/19 01:41:08;;;;;;;28.30;19.75;;;;;;;-0.38;68.46;100442.27;123415;1105;104351;-85
2021/03/19 01:43:43;;;;;;;25.85;20.85;;;;;;;-0.38;68.92;100434.42;123497;1105;104281;-80
2021/03/19 01:47:01;;;;;;;24.05;20.70;;;;;;;-0.45;69.03;100432.55;123242;1109;105056;-81
2021/03/19 01:50:05;;;;;;;22.77;17.87;;;;;;;-0.47;68.68;100435.99;123406;1109;104287;-83
2021/03/19 01:53:10;;;;;;;23.07;18.95;;;;;;;-0.53;68.88;100423.69;123530;1106;104223;-80
2021/03/19 01:56:14;;;;;;;28.67;19.92;;;;;;;-0.53;69.20;100435.02;123512;1105;104229;-84
2021/03/19 01:59:18;;;;;;;26.73;19.37;;;;;;;-0.54;69.31;100430.63;123504;1105;104331;-81
2021/03/19 02:02:22;;;;;;;21.20;18.97;;;;;;;-0.54;68.95;100425.39;123494;1105;104226;-81
2021/03/19 02:05:27;;;;;;;20.47;18.10;;;;;;;-0.51;69.27;100429.81;123597;1106;104986;-81
2021/03/19 02:08:32;;;;;;;20.47;17.50;;;;;;;-0.54;68.61;100424.53;123200;1105;104396;-81
2021/03/19 02:11:36;;;;;;;24.55;18.48;;;;;;;-0.52;68.97;100423.70;122862;1105;104502;-82
2021/03/19 02:14:40;;;;;;;24.43;19.60;;;;;;;-0.51;68.92;100415.02;122749;1105;104357;-80
2021/03/19 02:17:45;;;;;;;24.63;19.82;;;;;;;-0.52;69.26;100417.58;122740;1105;104270;-81
2021/03/19 02:20:49;;;;;;;26.40;18.80;;;;;;;-0.61;68.72;100425.24;122783;1105;104395;-81
2021/03/19 02:23:53;;;;;;;22.50;18.70;;;;;;;-0.64;69.02;100420.86;122840;1105;104268;-82
2021/03/19 02:27:01;;;;;;;23.25;20.48;;;;;;;-0.65;68.99;100426.94;122856;1105;104369;-82
2021/03/19 02:30:06;;;;;;;21.33;16.80;;;;;;;-0.66;69.22;100419.94;123104;1105;104255;-82
2021/03/19 02:32:32;;;;;;;20.77;16.63;;;;;;;-0.66;69.23;100424.30;123442;1105;104706;-81
2021/03/19 02:35:14;;;;;;;22.55;17.80;;;;;;;-0.69;69.27;100432.97;123469;1105;105406;-80
2021/03/19 02:37:55;;;;;;;21.60;17.27;;;;;;;-0.71;69.48;100424.19;123217;1109;104495;-82
2021/03/19 02:40:23;;;;;;;22.30;17.73;;;;;;;-0.74;69.62;100430.23;123178;1109;104242;-81
2021/03/19 02:42:50;;;;;;;20.17;15.98;;;;;;;-0.71;69.60;100432.94;123192;1109;104434;-82
2021/03/19 02:45:22;;;;;;;22.10;16.73;;;;;;;-0.69;69.93;100433.83;123205;1109;104435;-81
2021/03/19 02:47:49;;;;;;;26.93;16.10;;;;;;;-0.66;69.34;100430.40;123314;1107;104589;-81
2021/03/19 02:50:16;;;;;;;19.67;15.03;;;;;;;-0.65;69.61;100424.33;123211;1109;104556;-86
2021/03/19 02:52:43;;;;;;;17.67;13.77;;;;;;;-0.72;70.01;100431.16;123183;1106;104999;-81
2021/03/19 02:55:13;;;;;;;24.83;19.10;;;;;;;-0.68;69.80;100432.98;123203;1109;104409;-81
2021/03/19 02:57:40;;;;;;;19.20;14.68;;;;;;;-0.81;69.54;100436.20;123289;1109;104319;-80
2021/03/19 03:00:09;;;;;;;18.30;16.55;;;;;;;-0.78;70.18;100433.64;123280;1109;104238;-81
2021/03/19 03:02:35;;;;;;;21.27;17.10;;;;;;;-0.73;69.95;100438.98;123290;1108;104232;-82
2021/03/19 03:05:04;;;;;;;17.90;14.50;;;;;;;-0.70;69.51;100441.66;123326;1106;104389;-81
2021/03/19 03:07:45;;;;;;;19.10;15.40;;;;;;;-0.65;69.90;100445.25;123167;1109;104408;-80
2021/03/19 03:10:15;;;;;;;18.13;14.13;;;;;;;-0.61;69.77;100446.17;123265;1109;104388;-82
2021/03/19 03:12:42;;;;;;;21.07;15.08;;;;;;;-0.62;70.56;100447.91;123204;1109;104293;-81
2021/03/19 03:15:14;;;;;;;17.92;13.80;;;;;;;-0.66;69.95;100447.84;123280;1109;104306;-82
2021/03/19 03:17:42;;;;;;;21.53;16.73;;;;;;;-0.68;69.88;100440.84;123491;1105;104345;-82
2021/03/19 03:20:12;;;;;;;20.27;15.25;;;;;;;-0.62;70.04;100447.91;123550;1105;104304;-81
2021/03/19 03:22:41;;;;;;;22.10;17.00;;;;;;;-0.60;70.19;100443.61;123614;1105;104242;-81
2021/03/19 03:25:10;;;;;;;21.27;16.53;;;;;;;-0.66;70.21;100447.84;123553;1105;104210;-83
2021/03/19 03:27:52;;;;;;;17.30;15.10;;;;;;;-0.68;69.97;100453.01;123415;1106;105053;-81
2021/03/19 03:30:23;;;;;;;20.43;15.37;;;;;;;-0.69;70.18;100454.75;123484;1106;104418;-82
2021/03/19 03:32:50;;;;;;;22.37;17.63;;;;;;;-0.60;70.38;100455.78;123536;1105;104306;-82
2021/03/19 03:35:17;;;;;;;21.20;17.95;;;;;;;-0.53;70.13;100450.71;123353;1105;105166;-81
2021/03/19 03:37:45;;;;;;;20.53;18.40;;;;;;;-0.48;70.01;100455.15;123106;1105;104348;-80
2021/03/19 03:40:18;;;;;;;27.30;19.65;;;;;;;-0.43;69.87;100456.12;123494;1105;105019;-82
2021/03/19 03:42:44;;;;;;;22.03;18.27;;;;;;;-0.44;70.29;100455.26;123370;1105;104322;-85
2021/03/19 03:45:12;;;;;;;21.67;16.87;;;;;;;-0.43;69.83;100458.74;123349;1105;104874;-84
2021/03/19 03:47:40;;;;;;;21.03;16.93;;;;;;;-0.46;70.35;100456.08;123526;1105;104759;-81
2021/03/19 03:50:14;;;;;;;22.77;18.03;;;;;;;-0.43;69.84;100453.51;123488;1105;104459;-82
2021/03/19 03:53:00;;;;;;;27.10;17.90;;;;;;;-0.49;70.04;100456.89;123325;1105;104345;-83
2021/03/19 03:55:27;;;;;;;28.45;20.55;;;;;;;-0.41;70.18;100459.67;123358;1105;104504;-85
2021/03/19 03:57:54;;;;;;;22.05;18.23;;;;;;;-0.44;70.28;100451.73;123371;1105;104392;-80
2021/03/19 04:00:24;;;;;;;18.77;16.80;;;;;;;-0.38;70.45;100454.48;123446;1105;104979;-82
2021/03/19 04:02:52;;;;;;;22.02;18.05;;;;;;;-0.36;70.62;100456.28;123492;1105;104252;-82
2021/03/19 04:05:22;;;;;;;21.65;19.02;;;;;;;-0.40;70.45;100457.08;123334;1105;104382;-82
2021/03/19 04:07:49;;;;;;;26.50;18.27;;;;;;;-0.41;70.59;100465.77;123490;1105;104377;-83
2021/03/19 04:10:16;;;;;;;23.07;16.47;;;;;;;-0.40;70.58;100459.69;123428;1105;104396;-81
2021/03/19 04:12:45;;;;;;;20.37;18.17;;;;;;;-0.42;70.08;100466.61;123493;1105;105082;-80
2021/03/19 04:15:13;;;;;;;17.05;15.23;;;;;;;-0.47;70.95;100464.77;123348;1105;104913;-83
2021/03/19 04:17:41;;;;;;;18.32;15.65;;;;;;;-0.51;70.49;100463.81;123533;1106;104258;-82
2021/03/19 04:20:09;;;;;;;22.17;16.37;;;;;;;-0.47;71.05;100467.38;123627;1106;104909;-83
2021/03/19 04:22:37;;;;;;;18.35;14.75;;;;;;;-0.43;70.70;100466.59;123501;1105;105022;-82
2021/03/19 04:25:08;;;;;;;20.08;15.58;;;;;;;-0.44;71.46;100468.34;123627;1105;104379;-81
2021/03/19 04:27:39;;;;;;;18.67;14.63;;;;;;;-0.39;70.94;100469.28;123552;1105;104216;-81
2021/03/19 04:30:06;;;;;;;17.97;15.63;;;;;;;-0.35;70.70;100467.61;123540;1105;104206;-86
2021/03/19 04:32:33;;;;;;;15.90;14.10;;;;;;;-0.29;70.97;100472.08;123595;1105;104257;-82
2021/03/19 04:35:00;;;;;;;19.07;15.60;;;;;;;-0.22;71.02;100468.73;123411;1105;105123;-81
2021/03/19 04:37:26;;;;;;;18.50;16.00;;;;;;;-0.26;70.78;100459.94;123394;1106;104300;-82
2021/03/19 04:39:53;;;;;;;18.00;14.90;;;;;;;-0.25;70.65;100464.33;123431;1105;104955;-80
2021/03/19 04:42:20;;;;;;;21.83;14.00;;;;;;;-0.27;70.80;100460.78;123704;1105;104233;-81
2021/03/19 04:44:48;;;;;;;19.85;14.65;;;;;;;-0.22;70.67;100461.76;123413;1105;104637;-87
2021/03/19 04:47:15;;;;;;;16.97;13.73;;;;;;;-0.21;70.74;100460.91;123371;1105;105162;-81
2021/03/19 04:49:42;;;;;;;17.25;13.43;;;;;;;-0.18;70.96;100458.34;123505;1105;104885;-81
2021/03/19 04:52:09;;;;;;;18.77;13.45;;;;;;;-0.21;70.79;100463.53;123516;1105;104364;-80
2021/03/19 04:54:36;;;;;;;15.17;13.40;;;;;;;-0.29;71.65;100461.61;123463;1105;104224;-83
2021/03/19 04:57:02;;;;;;;17.50;14.47;;;;;;;-0.32;71.18;100465.08;123547;1105;104255;-81
2021/03/19 04:59:29;;;;;;;18.48;14.87;;;;;;;-0.37;71.63;100457.13;123446;1105;104456;-82
2021/03/19 05:01:58;;;;;;;20.77;18.27;;;;;;;-0.44;72.06;100462.20;123555;1105;104344;-81
2021/03/19 05:04:25;;;;;;;32.53;23.65;;;;;;;-0.49;71.65;100461.22;123418;1105;104693;-81
2021/03/19 05:06:56;;;;;;;31.37;24.53;;;;;;;-0.40;71.60;100467.55;123582;1105;104367;-82
2021/03/19 05:09:23;;;;;;;39.73;24.32;;;;;;;-0.47;71.74;100464.77;123475;1105;105012;-81
2021/03/19 05:12:05;;;;;;;41.33;26.20;;;;;;;-0.52;71.58;100465.56;123208;1105;104351;-81
2021/03/19 05:14:32;;;;;;;34.47;24.63;;;;;;;-0.55;71.42;100468.13;122965;1105;104679;-82
2021/03/19 05:17:13;;;;;;;28.27;23.75;;;;;;;-0.41;71.72;100462.28;122636;1109;104344;-81
2021/03/19 05:19:40;;;;;;;33.65;26.52;;;;;;;-0.44;71.71;100462.20;122691;1109;104683;-82
2021/03/19 05:22:07;;;;;;;39.38;26.00;;;;;;;-0.36;71.46;100469.36;122529;1109;104428;-82
2021/03/19 05:24:34;;;;;;;47.75;30.02;;;;;;;-0.42;71.28;100476.21;122742;1109;104562;-81
2021/03/19 05:27:03;;;;;;;44.67;27.70;;;;;;;-0.47;71.93;100467.38;122564;1109;104629;-85
2021/03/19 05:29:29;;;;;;;36.20;25.23;;;;;;;-0.40;72.12;100470.16;122456;1109;104939;-82
2021/03/19 05:31:56;;;;;;;32.63;21.60;;;;;;;-0.31;71.47;100471.19;122400;1109;104440;-80
2021/03/19 05:34:23;;;;;;;28.15;22.13;;;;;;;-0.20;72.02;100472.25;122492;1109;104496;-81
2021/03/19 05:36:50;;;;;;;24.90;21.75;;;;;;;-0.17;71.29;100477.56;122487;1109;104389;-80
2021/03/19 05:39:17;;;;;;;34.50;27.77;;;;;;;-0.16;71.70;100474.10;122421;1109;104376;-82
2021/03/19 05:41:44;;;;;;;36.53;30.00;;;;;;;-0.19;71.47;100472.31;122365;1109;104706;-81
2021/03/19 05:44:16;;;;;;;29.90;24.77;;;;;;;-0.02;71.55;100472.59;122282;1109;104578;-81
2021/03/19 05:47:05;;;;;;;28.60;24.20;;;;;;;0.09;70.81;100482.38;123144;1109;104380;-81
2021/03/19 05:49:33;;;;;;;24.33;20.83;;;;;;;0.10;71.01;100479.78;123326;1109;104434;-83
2021/03/19 05:52:26;;;;;;;34.80;25.08;;;;;;;0.14;70.93;100493.83;123184;1108;104309;-80
2021/03/19 05:54:54;;;;;;;36.28;28.83;;;;;;;0.15;70.76;100488.61;123182;1106;104392;-80
2021/03/19 05:57:25;;;;;;;133.90;97.37;;;;;;;0.23;70.41;100491.36;123411;1105;104376;-82
2021/03/19 06:00:21;;;;;;;32.58;27.25;;;;;;;0.24;70.41;100489.61;122903;1109;104262;-81
2021/03/19 06:02:48;;;;;;;26.87;22.90;;;;;;;0.25;70.75;100489.63;122952;1109;104262;-81
2021/03/19 06:05:29;;;;;;;28.52;19.45;;;;;;;0.27;70.91;100490.56;122999;1106;104370;-80
2021/03/19 06:08:03;;;;;;;27.93;22.52;;;;;;;0.32;71.48;100486.28;123657;1105;104450;-84
2021/03/19 06:10:33;;;;;;;25.00;22.05;;;;;;;0.37;71.04;100488.97;123589;1105;104226;-84
2021/03/19 06:13:08;;;;;;;26.23;21.35;;;;;;;0.31;71.24;100491.50;123343;1106;104150;-81
2021/03/19 06:15:36;;;;;;;22.27;19.70;;;;;;;0.27;71.17;100492.31;123472;1105;104370;-81
2021/03/19 06:18:39;;;;;;;24.43;21.27;;;;;;;0.36;71.24;100491.56;123587;1105;104287;-82
2021/03/19 06:21:11;;;;;;;25.48;20.90;;;;;;;0.32;71.19;100499.38;123353;1105;104306;-81
2021/03/19 06:23:41;;;;;;;28.10;21.40;;;;;;;0.43;71.59;100496.94;123413;1105;104345;-83
2021/03/19 06:26:24;;;;;;;26.17;20.50;;;;;;;0.56;71.87;100497.13;123474;1105;104538;-81
2021/03/19 06:29:05;;;;;;;24.35;20.02;;;;;;;0.77;71.33;100494.87;123037;1109;104760;-79
2021/03/19 06:31:32;;;;;;;28.45;20.40;;;;;;;0.90;70.97;100484.55;123124;1109;104412;-84
2021/03/19 06:34:02;;;;;;;24.60;17.87;;;;;;;1.01;70.52;100477.70;123126;1109;104453;-80
2021/03/19 06:36:30;;;;;;;26.20;19.55;;;;;;;1.16;70.86;100484.92;123063;1109;104848;-81
2021/03/19 06:39:27;;;;;;;19.97;17.07;;;;;;;1.18;69.94;100477.94;123052;1109;104581;-81
2021/03/19 06:42:20;;;;;;;28.90;18.17;;;;;;;1.30;70.69;100482.47;123050;1109;104440;-82
2021/03/19 06:45:09;;;;;;;23.70;18.33;;;;;;;1.44;70.03;100490.50;123077;1108;104446;-79
2021/03/19 06:47:41;;;;;;;20.08;17.37;;;;;;;1.44;69.76;100494.02;123180;1109;104424;-80
2021/03/19 06:50:22;;;;;;;31.37;22.53;;;;;;;1.42;70.25;100486.99;123056;1109;104343;-81
2021/03/19 06:53:12;;;;;;;24.65;18.07;;;;;;;1.46;69.80;100492.28;122787;1109;104374;-81
2021/03/19 06:55:43;;;;;;;27.85;21.65;;;;;;;1.53;70.47;100492.37;122683;1109;104482;-80
2021/03/19 06:58:10;;;;;;;27.33;20.43;;;;;;;1.58;69.62;100491.55;123069;1109;104435;-84
2021/03/19 07:00:46;;;;;;;23.10;20.17;;;;;;;1.64;70.17;100488.11;122963;1109;104408;-80
2021/03/19 07:03:32;;;;;;;33.70;23.57;;;;;;;1.67;70.08;100483.78;122922;1109;104335;-80
2021/03/19 07:06:23;;;;;;;25.30;20.27;;;;;;;1.74;69.90;100487.36;122949;1109;104339;-85
2021/03/19 07:08:58;;;;;;;20.40;17.12;;;;;;;1.65;69.63;100488.16;123290;1106;104287;-81
2021/03/19 07:11:43;;;;;;;36.05;19.25;;;;;;;1.59;69.10;100485.45;123480;1105;104303;-81
2021/03/19 07:14:33;;;;;;;23.83;19.77;;;;;;;1.55;69.06;100490.66;123369;1105;104265;-80
2021/03/19 07:17:23;;;;;;;27.55;19.95;;;;;;;1.60;70.09;100486.31;123396;1105;104226;-81
2021/03/19 07:20:21;;;;;;;24.65;18.32;;;;;;;1.61;69.62;100490.71;123386;1105;104201;-82
2021/03/19 07:23:04;;;;;;;26.83;20.13;;;;;;;1.62;69.67;100495.11;123534;1105;104226;-81
2021/03/19 07:26:26;;;;;;;24.50;19.52;;;;;;;1.67;68.71;100496.05;123448;1105;104329;-83
2021/03/19 07:29:44;;;;;;;20.13;16.97;;;;;;;1.74;68.95;100492.61;123355;1105;104309;-81
2021/03/19 07:32:48;;;;;;;21.63;15.93;;;;;;;1.80;69.21;100495.31;123134;1105;104432;-81
2021/03/19 07:35:41;;;;;;;28.63;18.03;;;;;;;1.93;69.20;100493.72;123258;1105;104383;-81
2021/03/19 07:38:13;;;;;;;19.42;15.98;;;;;;;2.04;68.46;100501.70;123270;1105;104441;-82
2021/03/19 07:40:42;;;;;;;24.07;15.13;;;;;;;2.12;68.02;100504.38;123284;1105;104319;-79
2021/03/19 07:43:37;;;;;;;18.27;14.55;;;;;;;2.21;67.37;100504.47;123239;1106;104734;-80
2021/03/19 07:46:37;;;;;;;26.30;19.15;;;;;;;2.18;68.05;100502.69;123060;1105;104373;-85
2021/03/19 07:49:31;;;;;;;23.60;17.70;;;;;;;2.27;68.57;100501.04;122939;1109;104325;-81
2021/03/19 07:52:14;;;;;;;20.95;17.50;;;;;;;2.28;68.03;100505.41;123084;1109;104415;-84
2021/03/19 07:55:12;;;;;;;21.47;16.77;;;;;;;2.20;68.32;100504.45;123203;1106;105441;-83
2021/03/19 07:57:56;;;;;;;21.10;18.50;;;;;;;2.29;67.57;100499.29;123353;1105;104954;-82
2021/03/19 08:00:42;;;;;;;28.32;17.32;;;;;;;2.35;67.28;100491.47;122958;1108;104607;-82
2021/03/19 08:03:31;;;;;;;24.75;20.70;;;;;;;2.33;67.28;100493.19;123090;1106;104453;-82
2021/03/19 08:06:12;;;;;;;25.53;19.00;;;;;;;2.33;67.57;100498.45;123209;1108;104419;-84
2021/03/19 08:08:58;;;;;;;28.90;20.70;;;;;;;2.39;67.46;100488.00;123270;1106;104243;-87
2021/03/19 08:11:44;;;;;;;30.02;20.32;;;;;;;2.48;67.61;100495.97;123298;1106;104392;-81
2021/03/19 08:14:33;;;;;;;24.53;21.10;;;;;;;2.54;67.35;100492.50;123323;1105;105140;-81
2021/03/19 08:17:41;;;;;;;23.43;19.43;;;;;;;2.79;67.45;100493.56;123097;1105;104367;-81
2021/03/19 08:20:17;;;;;;;26.77;18.77;;;;;;;2.67;67.00;100499.61;123083;1106;104396;-82
2021/03/19 08:23:00;;;;;;;23.32;19.75;;;;;;;2.75;66.92;100501.44;123363;1105;104290;-79
2021/03/19 08:25:33;;;;;;;21.85;17.70;;;;;;;2.85;66.31;100500.61;123421;1105;104517;-80
2021/03/19 08:28:27;;;;;;;28.77;18.33;;;;;;;2.89;66.51;100491.86;123202;1105;104240;-81
2021/03/19 08:31:32;;;;;;;22.98;19.67;;;;;;;2.91;65.78;100497.16;123091;1105;104389;-81
2021/03/19 08:34:40;;;;;;;23.77;18.93;;;;;;;2.92;66.25;100509.42;122990;1105;104241;-83
2021/03/19 08:38:05;;;;;;;23.60;18.25;;;;;;;2.89;65.57;100501.52;123437;1105;104752;-80
2021/03/19 08:40:57;;;;;;;26.57;20.37;;;;;;;2.77;66.43;100503.20;124011;1106;104188;-81
2021/03/19 08:43:35;;;;;;;23.45;18.20;;;;;;;2.74;66.28;100502.30;125206;1106;104284;-87
2021/03/19 08:46:36;;;;;;;23.87;19.95;;;;;;;2.66;65.95;100503.10;123154;1105;104348;-81
2021/03/19 08:49:35;;;;;;;29.40;20.65;;;;;;;2.68;66.27;100498.75;123171;1105;104341;-81
2021/03/19 08:52:35;;;;;;;21.20;19.10;;;;;;;2.68;65.33;100501.37;123261;1105;104331;-81
2021/03/19 08:55:14;;;;;;;22.67;18.33;;;;;;;2.91;65.64;100497.16;123101;1105;104354;-83
2021/03/19 08:57:49;;;;;;;29.90;20.77;;;;;;;3.06;65.55;100499.00;123152;1105;104300;-81
2021/03/19 09:00:32;;;;;;;28.97;22.40;;;;;;;3.08;65.17;100500.77;123324;1105;104418;-82
2021/03/19 09:03:06;;;;;;;23.63;18.83;;;;;;;3.08;65.35;100503.41;123149;1105;107163;-82
2021/03/19 09:06:05;;;;;;;25.53;20.10;;;;;;;3.04;64.35;100500.73;123394;1105;104169;-81
2021/03/19 09:08:45;;;;;;;25.00;20.92;;;;;;;2.98;65.05;100498.95;123320;1104;104341;-86
2021/03/19 09:11:21;;;;;;;21.30;16.57;;;;;;;2.93;65.24;100516.45;123292;1105;104280;-80
2021/03/19 09:14:03;;;;;;;25.15;20.37;;;;;;;2.83;65.58;100505.00;123422;1106;104236;-81
2021/03/19 09:16:51;;;;;;;23.83;19.67;;;;;;;2.86;65.48;100502.38;123353;1106;104973;-85
2021/03/19 09:19:40;;;;;;;24.98;19.35;;;;;;;2.86;65.41;100505.00;123202;1105;104482;-80
2021/03/19 09:22:33;;;;;;;26.80;20.75;;;;;;;2.92;66.31;100498.89;123116;1105;104801;-83
2021/03/19 09:25:23;;;;;;;25.85;17.35;;;;;;;2.92;65.44;100497.16;123349;1105;104396;-81
2021/03/19 09:28:12;;;;;;;19.90;16.85;;;;;;;2.83;64.30;100495.34;123152;1106;104849;-81
2021/03/19 09:31:05;;;;;;;18.85;16.42;;;;;;;2.94;64.81;100489.28;123411;1105;104332;-80
2021/03/19 09:33:45;;;;;;;25.05;19.70;;;;;;;2.97;64.31;100502.44;123379;1105;104303;-79
2021/03/19 09:36:54;;;;;;;20.37;18.17;;;;;;;2.97;63.57;100498.08;123453;1105;104364;-84
2021/03/19 09:39:59;;;;;;;22.27;17.82;;;;;;;3.03;64.00;100497.23;123013;1105;104399;-81
2021/03/19 09:42:28;;;;;;;18.82;16.82;;;;;;;3.09;64.22;100496.38;123352;1105;104373;-82
2021/03/19 09:45:03;;;;;;;19.13;15.97;;;;;;;3.05;63.29;100484.08;123413;1105;104498;-83
2021/03/19 09:47:38;;;;;;;16.20;14.50;;;;;;;3.21;62.92;100498.20;123325;1105;104252;-83
2021/03/19 09:50:21;;;;;;;19.67;17.10;;;;;;;3.14;62.70;100497.29;123277;1105;104360;-82
2021/03/19 09:53:09;;;;;;;25.57;14.85;;;;;;;3.47;63.12;100495.70;123103;1105;104996;-83
2021/03/19 09:55:56;;;;;;;15.45;13.85;;;;;;;3.82;61.35;100494.94;122807;1105;104424;-81
2021/03/19 09:58:41;;;;;;;18.83;16.87;;;;;;;4.78;61.10;100489.75;122878;1105;104323;-81
2021/03/19 10:01:33;;;;;;;16.47;14.20;;;;;;;7.36;52.33;100477.56;122983;1105;104284;-82
2021/03/19 10:04:06;;;;;;;18.27;14.25;;;;;;;9.45;50.90;100471.57;123342;1105;104206;-84
2021/03/19 10:06:38;;;;;;;32.73;26.37;;;;;;;11.34;45.43;100471.47;122940;1105;104660;-82
2021/03/19 10:09:28;;;;;;;19.43;14.37;;;;;;;12.99;41.87;100462.70;122794;1105;104341;-80
2021/03/19 10:12:04;;;;;;;12.73;11.27;;;;;;;14.78;40.24;100459.42;122947;1105;104466;-81
2021/03/19 10:14:42;;;;;;;10.25;8.50;;;;;;;16.18;35.32;100471.88;123185;1105;104136;-81
2021/03/19 10:17:33;;;;;;;14.03;10.20;;;;;;;14.84;35.90;100468.08;122949;1106;104255;-84
2021/03/19 10:20:23;;;;;;;8.97;8.00;;;;;;;13.39;36.81;100465.77;123538;1105;105011;-83
2021/03/19 10:22:53;;;;;;;11.57;8.60;;;;;;;12.48;38.31;100475.13;123281;1108;104434;-81
2021/03/19 10:25:39;;;;;;;12.43;10.13;;;;;;;13.56;36.81;100483.88;123053;1105;104472;-82
2021/03/19 10:28:12;;;;;;;10.82;9.43;;;;;;;12.50;37.28;100488.43;122934;1105;104237;-83
2021/03/19 10:30:44;;;;;;;11.93;8.87;;;;;;;11.38;39.27;100482.89;123080;1105;104207;-86
2021/03/19 10:33:14;;;;;;;12.53;10.57;;;;;;;10.42;40.30;100489.86;123172;1105;104328;-84
2021/03/19 10:35:49;;;;;;;13.28;10.25;;;;;;;11.67;39.62;100491.86;123185;1105;104271;-82
2021/03/19 10:38:40;;;;;;;16.67;11.43;;;;;;;10.82;40.28;100496.84;123063;1106;104255;-82
2021/03/19 10:41:32;;;;;;;13.57;10.97;;;;;;;11.90;38.90;100491.16;123128;1105;104382;-82
2021/03/19 10:44:24;;;;;;;9.50;8.67;;;;;;;14.47;34.56;100480.31;123234;1105;104322;-82
2021/03/19 10:46:58;;;;;;;10.88;8.88;;;;;;;16.31;32.69;100472.13;123421;1105;104210;-82
2021/03/19 10:49:39;;;;;;;11.67;9.83;;;;;;;17.87;30.83;100471.25;123415;1105;104309;-82
2021/03/19 10:52:42;;;;;;;16.32;7.97;;;;;;;17.38;29.82;100472.98;124145;1105;104236;-90
2021/03/19 10:55:23;;;;;;;9.40;7.95;;;;;;;15.15;30.45;100471.23;126017;1105;102380;-85
2021/03/19 10:57:55;;;;;;;9.03;6.57;;;;;;;13.61;32.92;100479.23;125660;1104;104124;-86
2021/03/19 11:00:37;;;;;;;8.63;7.73;;;;;;;12.65;34.30;100479.05;125861;1105;104249;-89
2021/03/19 11:03:36;;;;;;;9.65;7.75;;;;;;;11.67;36.15;100479.38;125821;1105;104198;-85
2021/03/19 11:06:08;;;;;;;12.82;8.65;;;;;;;10.77;37.58;100480.10;123761;1105;104399;-82
2021/03/19 11:08:36;;;;;;;13.48;10.32;;;;;;;10.19;38.92;100472.62;123064;1105;104986;-83
2021/03/19 11:11:03;;;;;;;13.13;11.25;;;;;;;9.78;39.75;100482.41;123257;1105;104333;-82
2021/03/19 11:13:37;;;;;;;10.40;8.60;;;;;;;9.33;39.61;100475.34;123125;1105;104377;-82
2021/03/19 11:16:13;;;;;;;9.53;8.53;;;;;;;8.87;42.05;100475.31;123088;1105;104306;-84
2021/03/19 11:18:42;;;;;;;10.98;9.20;;;;;;;8.65;41.17;100479.26;123248;1105;104663;-80
2021/03/19 11:21:09;;;;;;;10.82;8.55;;;;;;;8.46;42.33;100479.56;123352;1105;104297;-86
2021/03/19 11:23:46;;;;;;;11.33;7.70;;;;;;;8.24;42.71;100471.05;123064;1105;104326;-82
2021/03/19 11:26:29;;;;;;;9.17;8.27;;;;;;;7.76;42.99;100481.48;123206;1105;105000;-82
2021/03/19 11:29:45;;;;;;;10.05;9.13;;;;;;;7.27;43.30;100480.31;123494;1104;104377;-84
2021/03/19 11:32:14;;;;;;;10.40;8.57;;;;;;;6.70;44.07;100476.47;123059;1109;104370;-81
2021/03/19 11:34:44;;;;;;;9.25;7.92;;;;;;;6.35;44.95;100485.59;123066;1109;104399;-83
2021/03/19 11:37:33;;;;;;;10.63;8.87;;;;;;;6.05;46.41;100486.67;123417;1108;104322;-82
2021/03/19 11:40:26;;;;;;;11.00;9.00;;;;;;;5.89;47.49;100481.47;123493;1109;104472;-85
2021/03/19 11:43:00;;;;;;;11.70;9.27;;;;;;;5.86;46.92;100478.81;123103;1109;104284;-82
2021/03/19 11:45:40;;;;;;;10.00;8.93;;;;;;;5.85;47.09;100479.70;122785;1109;104290;-85
2021/03/19 11:48:19;;;;;;;9.68;8.55;;;;;;;5.84;46.85;100480.61;122933;1109;104427;-81
2021/03/19 11:51:15;;;;;;;13.20;10.53;;;;;;;5.68;46.32;100470.11;122880;1109;104871;-81
2021/03/19 11:53:44;;;;;;;12.73;9.10;;;;;;;5.51;47.82;100467.54;122833;1109;104402;-85